Time;durP1;ratioP1;P1;durP2;ratioP2;P2;SDS_P1;SDS_P2;PMS_P1;PMS_P2;Temp;Humidity;BMP_temperature;BMP_pressure;BME280_temperature;BME280_humidity;BME280_pressure;Samples;Min_cycle;Max_cycle;Signal;HPM_P1;HPM_P2
2024/02/07 00:00:17;;;;;;;30.33;15.82;;;;;;;8.66;100.00;100278.31;5084722;28;20044;-78
2024/02/07 00:02:43;;;;;;;29.25;14.38;;;;;;;8.68;100.00;100266.03;5102474;28;20054;-74
2024/02/07 00:05:08;;;;;;;29.10;15.52;;;;;;;8.70;100.00;100287.97;5085016;28;20034;-75
2024/02/07 00:07:33;;;;;;;29.48;14.23;;;;;;;8.72;100.00;100259.91;5082711;28;20043;-75
2024/02/07 00:09:58;;;;;;;29.67;14.75;;;;;;;8.76;100.00;100271.31;5104577;28;20062;-75
2024/02/07 00:12:24;;;;;;;29.70;15.02;;;;;;;8.77;100.00;100277.47;5101764;28;20085;-75
2024/02/07 00:14:49;;;;;;;30.00;13.73;;;;;;;8.77;100.00;100278.34;5103146;28;20527;-75
2024/02/07 00:17:14;;;;;;;29.15;14.95;;;;;;;8.81;100.00;100260.78;5103251;28;20063;-75
2024/02/07 00:19:40;;;;;;;28.60;14.50;;;;;;;8.79;100.00;100273.94;5101829;28;20028;-75
2024/02/07 00:22:05;;;;;;;28.00;14.65;;;;;;;8.80;100.00;100273.09;5104197;28;20081;-75
2024/02/07 00:24:31;;;;;;;29.10;14.65;;;;;;;8.82;100.00;100281.00;5101013;28;20060;-75
2024/02/07 00:26:56;;;;;;;28.08;14.15;;;;;;;8.84;100.00;100268.69;5103833;28;20059;-76
2024/02/07 00:29:21;;;;;;;28.08;14.18;;;;;;;8.84;100.00;100285.41;5083927;28;20028;-75
2024/02/07 00:31:47;;;;;;;28.23;13.73;;;;;;;8.87;100.00;100284.53;5102537;28;20502;-75
2024/02/07 00:34:12;;;;;;;27.55;14.20;;;;;;;8.86;100.00;100277.50;5103195;28;20039;-74
2024/02/07 00:36:38;;;;;;;28.63;14.27;;;;;;;8.82;100.00;100291.53;5101482;28;20070;-74
2024/02/07 00:39:04;;;;;;;29.83;14.93;;;;;;;8.81;100.00;100289.75;5104229;28;20020;-74
2024/02/07 00:41:30;;;;;;;29.95;14.48;;;;;;;8.83;100.00;100278.34;5100636;28;20486;-74
2024/02/07 00:43:55;;;;;;;30.38;15.45;;;;;;;8.82;100.00;100291.53;5103897;28;20374;-74
2024/02/07 00:46:21;;;;;;;28.80;15.15;;;;;;;8.83;100.00;100298.56;5083579;28;20035;-76
2024/02/07 00:48:46;;;;;;;27.90;15.27;;;;;;;8.81;100.00;100288.03;5102267;28;20581;-74
2024/02/07 00:51:12;;;;;;;29.35;15.35;;;;;;;8.81;100.00;100302.94;5103152;28;20032;-74
2024/02/07 00:53:37;;;;;;;29.38;14.75;;;;;;;8.81;100.00;100282.75;5100986;28;20035;-73
2024/02/07 00:56:03;;;;;;;28.73;14.88;;;;;;;8.83;100.00;100294.16;5104025;28;20049;-77
2024/02/07 00:58:29;;;;;;;29.33;15.18;;;;;;;8.85;100.00;100287.16;5100694;28;20028;-74
2024/02/07 01:00:55;;;;;;;29.17;15.80;;;;;;;8.83;100.00;100267.81;5103394;28;20042;-75
2024/02/07 01:03:20;;;;;;;29.83;14.88;;;;;;;8.85;100.00;100270.44;5101787;28;20186;-75
2024/02/07 01:05:46;;;;;;;28.55;14.85;;;;;;;8.87;100.00;100276.63;5084186;28;20111;-73
2024/02/07 01:08:11;;;;;;;28.42;15.38;;;;;;;8.87;100.00;100268.72;5102800;28;20044;-73
2024/02/07 01:10:38;;;;;;;29.00;15.57;;;;;;;8.86;100.00;100272.22;5101014;28;20028;-74
2024/02/07 01:13:04;;;;;;;27.77;14.90;;;;;;;8.86;100.00;100266.94;5104400;28;20054;-73
2024/02/07 01:15:29;;;;;;;28.58;14.85;;;;;;;8.90;100.00;100284.53;5101653;28;20022;-74
2024/02/07 01:17:55;;;;;;;26.83;14.38;;;;;;;8.89;100.00;100266.94;5107224;28;20034;-73
2024/02/07 01:20:20;;;;;;;26.10;14.13;;;;;;;8.89;100.00;100245.88;5087441;28;20042;-72
2024/02/07 01:22:45;;;;;;;25.88;13.55;;;;;;;8.87;100.00;100247.63;5105662;28;20024;-72
2024/02/07 01:25:11;;;;;;;26.08;13.70;;;;;;;8.86;100.00;100241.47;5106959;28;20098;-72
2024/02/07 01:27:37;;;;;;;26.08;12.82;;;;;;;8.89;100.00;100237.97;5104198;28;20032;-72
2024/02/07 01:30:02;;;;;;;24.67;12.63;;;;;;;8.89;100.00;100235.31;5107379;28;20027;-74
2024/02/07 01:32:28;;;;;;;25.88;12.32;;;;;;;8.88;100.00;100212.47;5086294;28;20039;-73
2024/02/07 01:34:53;;;;;;;24.30;11.98;;;;;;;8.90;100.00;100210.72;5088461;28;20028;-72
2024/02/07 01:37:20;;;;;;;26.10;12.00;;;;;;;8.88;100.00;100199.28;5105359;28;20028;-73
2024/02/07 01:39:45;;;;;;;26.42;11.80;;;;;;;8.86;100.00;100186.09;5105504;28;20039;-74
2024/02/07 01:42:10;;;;;;;25.38;11.80;;;;;;;8.85;100.00;100181.75;5106417;28;20023;-73
2024/02/07 01:44:37;;;;;;;24.17;11.10;;;;;;;8.84;100.00;100194.88;5103788;28;20030;-72
2024/02/07 01:47:14;;;;;;;24.95;11.52;;;;;;;8.83;100.00;100187.88;5107279;28;20032;-72
2024/02/07 01:49:50;;;;;;;25.08;11.55;;;;;;;8.80;100.00;100179.97;5104084;28;20463;-74
2024/02/07 01:52:25;;;;;;;26.42;12.10;;;;;;;8.81;100.00;100213.34;5105635;28;20028;-74
2024/02/07 01:54:52;;;;;;;25.67;11.40;;;;;;;8.81;100.00;100215.97;5105675;28;20024;-75
2024/02/07 01:57:18;;;;;;;25.27;12.32;;;;;;;8.81;100.00;100247.59;5087635;28;20039;-73
2024/02/07 01:59:45;;;;;;;20.13;6.20;;;;;;;8.33;100.00;100207.91;5104693;28;20032;-72
2024/02/07 02:02:11;;;;;;;18.90;6.25;;;;;;;7.88;100.00;100226.16;5106195;28;20110;-72
2024/02/07 02:04:37;;;;;;;18.92;5.78;;;;;;;7.65;100.00;100303.19;5103730;28;20467;-72
2024/02/07 02:07:03;;;;;;;18.73;5.93;;;;;;;7.31;100.00;100275.72;5088615;28;20116;-71
2024/02/07 02:09:29;;;;;;;20.58;6.30;;;;;;;6.68;100.00;100281.22;5103334;28;20056;-71
2024/02/07 02:11:57;;;;;;;20.27;6.10;;;;;;;6.28;100.00;100294.75;5105943;28;20035;-71
2024/02/07 02:14:23;;;;;;;20.10;5.70;;;;;;;5.98;100.00;100258.50;5086211;28;20096;-71
2024/02/07 02:16:48;;;;;;;20.60;5.70;;;;;;;5.75;100.00;100281.72;5105201;28;20032;-72
2024/02/07 02:19:17;;;;;;;21.98;5.65;;;;;;;5.65;100.00;100282.44;5105617;28;20088;-71
2024/02/07 02:22:19;;;;;;;20.15;5.20;;;;;;;5.58;100.00;100287.59;5104027;28;20031;-73
2024/02/07 02:25:09;;;;;;;20.58;5.40;;;;;;;5.43;100.00;100279.47;5104505;28;20055;-71
2024/02/07 02:27:37;;;;;;;20.10;5.30;;;;;;;5.38;100.00;100282.03;5102172;28;20039;-72
2024/02/07 02:30:11;;;;;;;19.95;5.15;;;;;;;5.34;100.00;100280.22;5102697;28;20020;-71
2024/02/07 02:32:42;;;;;;;21.42;5.20;;;;;;;5.26;100.00;100280.94;5089456;28;20032;-71
2024/02/07 02:35:09;;;;;;;20.40;5.72;;;;;;;5.23;100.00;100289.66;5103052;28;20033;-71
2024/02/07 02:37:35;;;;;;;22.00;6.25;;;;;;;5.33;100.00;100299.44;5106558;28;20480;-71
2024/02/07 02:40:05;;;;;;;24.05;6.28;;;;;;;5.35;100.00;100313.44;5102665;28;20104;-72
2024/02/07 02:42:31;;;;;;;21.17;6.20;;;;;;;5.32;100.00;100307.28;5103014;28;20164;-73
2024/02/07 02:44:56;;;;;;;22.65;5.97;;;;;;;5.22;100.00;100309.72;5105693;28;20115;-72
2024/02/07 02:47:22;;;;;;;22.80;6.95;;;;;;;5.28;100.00;100316.81;5103550;28;20078;-71
2024/02/07 02:49:47;;;;;;;23.52;6.88;;;;;;;5.24;100.00;100310.66;5085723;28;20028;-72
2024/02/07 02:52:13;;;;;;;24.17;6.97;;;;;;;5.24;100.00;100310.66;5105086;28;20030;-71
2024/02/07 02:54:39;;;;;;;23.23;6.75;;;;;;;5.20;100.00;100319.31;5103030;28;20040;-71
2024/02/07 02:57:07;;;;;;;21.08;5.60;;;;;;;5.11;100.00;100323.50;5105886;28;20050;-75
2024/02/07 02:59:35;;;;;;;21.58;5.45;;;;;;;5.03;100.00;100315.50;5102383;28;20502;-71
2024/02/07 03:02:08;;;;;;;22.38;5.30;;;;;;;4.95;100.00;100328.47;5105582;28;20035;-75
2024/02/07 03:04:41;;;;;;;20.10;4.90;;;;;;;4.89;100.00;100329.22;5102353;28;20098;-72
2024/02/07 03:07:35;;;;;;;;;;;;;;;5.00;100.00;100326.78;5102548;28;20080;-71
2024/02/07 03:09:51;;;;;;;24.10;4.88;;;;;;;4.76;100.00;100322.00;5102899;28;20025;-73
2024/02/07 03:12:16;;;;;;;24.65;5.15;;;;;;;4.72;100.00;100322.78;5103743;28;20127;-71
2024/02/07 03:14:42;;;;;;;22.25;5.38;;;;;;;4.66;100.00;100333.09;5104448;28;20039;-73
2024/02/07 03:17:08;;;;;;;22.80;5.20;;;;;;;4.67;100.00;100342.72;5102395;28;20047;-72
2024/02/07 03:19:35;;;;;;;23.85;5.68;;;;;;;4.62;100.00;100320.84;5105642;28;20023;-73
2024/02/07 03:22:03;;;;;;;21.60;5.90;;;;;;;4.62;100.00;100339.16;5102013;28;20084;-72
2024/02/07 03:24:29;;;;;;;23.80;6.00;;;;;;;4.56;100.00;100333.78;5105026;28;20032;-74
2024/02/07 03:26:55;;;;;;;24.63;6.40;;;;;;;4.64;100.00;100333.06;5102810;28;20028;-72
2024/02/07 03:29:20;;;;;;;23.52;6.32;;;;;;;4.62;100.00;100339.16;5085387;28;20127;-72
2024/02/07 03:31:46;;;;;;;24.65;7.13;;;;;;;4.61;100.00;100329.53;5104117;28;20059;-71
2024/02/07 03:34:11;;;;;;;25.30;7.72;;;;;;;4.53;100.00;100330.25;5102329;28;20184;-71
2024/02/07 03:36:37;;;;;;;23.67;7.90;;;;;;;4.55;100.00;100338.13;5104983;28;20028;-73
2024/02/07 03:39:07;;;;;;;23.15;7.97;;;;;;;4.59;100.00;100353.06;5101818;28;20020;-73
2024/02/07 03:41:32;;;;;;;24.67;7.72;;;;;;;4.54;100.00;100346.81;5101466;28;20431;-71
2024/02/07 03:43:58;;;;;;;24.58;7.63;;;;;;;4.60;100.00;100353.94;5104417;28;20055;-73
2024/02/07 03:46:24;;;;;;;21.98;6.85;;;;;;;4.57;100.00;100351.25;5102507;28;20040;-72
2024/02/07 03:48:49;;;;;;;21.30;6.90;;;;;;;4.56;100.00;100358.22;5103031;28;20062;-73
2024/02/07 03:51:15;;;;;;;21.45;7.13;;;;;;;4.55;100.00;100353.84;5103416;28;20453;-72
2024/02/07 03:53:44;;;;;;;21.67;6.85;;;;;;;4.54;100.00;100363.44;5102204;28;20659;-73
2024/02/07 03:56:11;;;;;;;21.77;6.32;;;;;;;4.52;100.00;100362.50;5104238;28;20024;-72
2024/02/07 03:58:37;;;;;;;19.67;6.05;;;;;;;4.61;100.00;100353.97;5083206;28;20394;-71
2024/02/07 04:01:03;;;;;;;21.65;7.22;;;;;;;4.58;100.00;100364.38;5104792;28;20216;-72
2024/02/07 04:03:29;;;;;;;20.75;6.03;;;;;;;4.44;100.00;100366.72;5083347;28;20559;-73
2024/02/07 04:05:54;;;;;;;21.42;4.65;;;;;;;4.27;100.00;100361.09;5103588;28;20024;-71
2024/02/07 04:08:20;;;;;;;18.30;3.50;;;;;;;4.11;100.00;100357.25;5102763;28;20139;-71
2024/02/07 04:10:51;;;;;;;22.15;3.80;;;;;;;3.96;100.00;100362.13;5102140;28;20067;-71
2024/02/07 05:15:52;;;;;;;20.52;4.53;;;;;;;3.66;100.00;100412.84;5106612;28;20123;-78
2024/02/07 05:18:20;;;;;;;20.15;4.70;;;;;;;3.70;100.00;100405.94;5106211;28;20028;-78
2024/02/07 05:20:47;;;;;;;19.08;4.50;;;;;;;3.67;100.00;100407.63;5105382;28;20028;-76
2024/02/07 05:23:12;;;;;;;20.17;4.95;;;;;;;3.64;100.00;100396.19;5106937;28;20031;-78
2024/02/07 05:25:38;;;;;;;20.42;4.80;;;;;;;3.68;100.00;100403.28;5104576;28;20035;-78
2024/02/07 05:28:05;;;;;;;19.33;4.75;;;;;;;3.80;100.00;100397.47;5107727;28;20390;-78
2024/02/07 05:30:30;;;;;;;20.20;4.75;;;;;;;3.83;100.00;100392.34;5104254;28;20028;-78
2024/02/07 05:32:55;;;;;;;19.73;4.75;;;;;;;3.96;100.00;100399.63;5106490;28;20035;-77
2024/02/07 05:35:21;;;;;;;20.35;4.88;;;;;;;4.00;100.00;100393.63;5105639;28;20024;-77
2024/02/07 05:37:48;;;;;;;19.40;5.03;;;;;;;4.00;100.00;100405.81;5105142;28;20045;-77
2024/02/07 05:40:14;;;;;;;18.65;4.97;;;;;;;4.04;100.00;100402.44;5106477;28;20027;-78
2024/02/07 05:42:39;;;;;;;20.80;5.22;;;;;;;4.05;100.00;100398.97;5104541;28;20038;-77
2024/02/07 05:45:05;;;;;;;19.40;5.18;;;;;;;4.08;100.00;100396.44;5089159;28;20032;-71
2024/02/07 05:47:30;;;;;;;20.30;5.10;;;;;;;4.04;100.00;100401.56;5103931;28;20364;-71
2024/02/07 05:49:56;;;;;;;22.05;5.63;;;;;;;3.93;100.00;100396.03;5106422;28;20074;-72
2024/02/07 05:52:23;;;;;;;20.02;5.20;;;;;;;3.97;100.00;100410.97;5086812;28;20031;-71
2024/02/07 05:54:49;;;;;;;20.60;5.47;;;;;;;3.96;100.00;100406.59;5105023;28;20375;-71
2024/02/07 05:57:15;;;;;;;21.02;5.15;;;;;;;3.90;100.00;100406.44;5106186;28;20534;-71
2024/02/07 05:59:41;;;;;;;18.95;4.80;;;;;;;3.83;100.00;100410.66;5103876;28;20032;-71
2024/02/07 06:02:06;;;;;;;21.33;5.03;;;;;;;3.89;100.00;100421.25;5105821;28;20059;-71
2024/02/07 06:04:34;;;;;;;20.95;6.43;;;;;;;3.87;100.00;100429.91;5103485;28;20025;-71
2024/02/07 06:06:59;;;;;;;26.65;15.77;;;;;;;3.79;100.00;100421.88;5106153;28;20396;-71
2024/02/07 06:09:25;;;;;;;23.75;9.40;;;;;;;3.67;100.00;100430.28;5104474;28;20043;-71
2024/02/07 06:11:51;;;;;;;21.83;5.80;;;;;;;3.76;100.00;100440.97;5104765;28;20119;-71
2024/02/07 06:14:17;;;;;;;23.13;9.00;;;;;;;3.64;100.00;100436.31;5087785;28;20147;-70
2024/02/07 06:16:42;;;;;;;21.77;4.80;;;;;;;3.54;100.00;100451.72;5085701;28;20074;-72
2024/02/07 06:19:08;;;;;;;20.05;4.55;;;;;;;3.52;100.00;100451.66;5106657;28;20516;-71
2024/02/07 06:21:33;;;;;;;23.60;11.35;;;;;;;3.45;100.00;100460.19;5103255;28;20032;-71
2024/02/07 06:23:59;;;;;;;24.08;7.68;;;;;;;3.62;100.00;100466.75;5105908;28;20028;-73
2024/02/07 06:26:24;;;;;;;19.85;4.30;;;;;;;3.67;100.00;100472.13;5104283;28;20023;-72
2024/02/07 06:28:50;;;;;;;19.88;4.30;;;;;;;3.67;100.00;100465.16;5104563;28;20031;-75
2024/02/07 06:31:16;;;;;;;22.50;7.63;;;;;;;3.70;100.00;100466.97;5105478;28;20114;-73
2024/02/07 06:33:42;;;;;;;23.02;9.25;;;;;;;3.76;100.00;100455.78;5103217;28;20028;-73
2024/02/07 06:36:07;;;;;;;20.65;4.07;;;;;;;3.75;100.00;100457.50;5106410;28;20031;-73
2024/02/07 06:38:32;;;;;;;20.38;4.18;;;;;;;3.73;100.00;100459.22;5102935;28;20024;-75
2024/02/07 06:40:58;;;;;;;18.63;4.20;;;;;;;3.66;100.00;100465.13;5105378;28;20054;-72
2024/02/07 06:43:24;;;;;;;20.77;4.10;;;;;;;3.68;100.00;100450.34;5103802;28;20038;-74
2024/02/07 06:45:50;;;;;;;21.83;4.13;;;;;;;3.70;100.00;100448.69;5104342;28;20116;-75
2024/02/07 06:48:15;;;;;;;21.30;3.90;;;;;;;3.79;100.00;100446.28;5086745;28;20031;-76
2024/02/07 06:50:41;;;;;;;18.83;4.10;;;;;;;3.80;100.00;100445.44;5084600;28;20024;-75
2024/02/07 06:53:06;;;;;;;18.20;3.60;;;;;;;3.75;100.00;100443.56;5105877;28;20469;-72
2024/02/07 06:55:31;;;;;;;22.33;4.22;;;;;;;3.79;100.00;100441.06;5084338;28;20024;-71
2024/02/07 06:57:57;;;;;;;18.98;3.78;;;;;;;3.67;100.00;100457.31;5105202;28;20032;-72
2024/02/07 07:00:22;;;;;;;22.00;4.30;;;;;;;3.68;100.00;100458.19;5103756;28;20378;-71
2024/02/07 07:02:48;;;;;;;21.35;4.43;;;;;;;3.63;100.00;100470.28;5103553;28;20031;-77
2024/02/07 07:05:13;;;;;;;19.75;4.10;;;;;;;3.65;100.00;100466.81;5087068;28;20027;-76
2024/02/07 07:07:39;;;;;;;21.67;4.30;;;;;;;3.72;100.00;100467.88;5102328;28;20020;-75
2024/02/07 07:10:04;;;;;;;20.45;4.22;;;;;;;3.65;100.00;100472.06;5105409;28;20548;-76
2024/02/07 07:12:30;;;;;;;20.27;4.40;;;;;;;3.71;100.00;100470.47;5084462;28;20039;-74
2024/02/07 07:14:56;;;;;;;20.20;4.40;;;;;;;3.63;100.00;100475.50;5103995;28;20027;-78
2024/02/07 07:17:21;;;;;;;19.98;4.30;;;;;;;3.67;100.00;100472.13;5085536;28;20031;-76
2024/02/07 07:19:46;;;;;;;21.58;5.18;;;;;;;3.62;100.00;100482.44;5103186;28;20115;-77
2024/02/07 07:22:12;;;;;;;21.63;5.68;;;;;;;3.56;100.00;100495.34;5104907;28;20031;-76
2024/02/07 07:24:37;;;;;;;19.23;4.30;;;;;;;3.62;100.00;100489.41;5102026;28;20455;-77
2024/02/07 07:27:06;;;;;;;19.88;4.63;;;;;;;3.71;100.00;100492.25;5105071;28;20031;-76
2024/02/07 07:29:31;;;;;;;20.40;4.57;;;;;;;3.67;100.00;100491.31;5102046;28;20024;-77
2024/02/07 07:31:57;;;;;;;19.65;4.70;;;;;;;3.66;100.00;100499.09;5104199;28;20459;-75
2024/02/07 07:34:23;;;;;;;21.75;5.22;;;;;;;3.46;100.00;100490.72;5103516;28;20066;-76
2024/02/07 07:36:48;;;;;;;22.33;4.88;;;;;;;3.41;100.00;100505.41;5084651;28;20032;-79
2024/02/07 07:39:14;;;;;;;21.80;5.10;;;;;;;3.53;100.00;100504.84;5104522;28;20020;-73
2024/02/07 07:41:39;;;;;;;20.48;5.22;;;;;;;3.41;100.00;100511.50;5101475;28;20153;-77
2024/02/07 07:44:05;;;;;;;21.73;5.22;;;;;;;3.43;100.00;100515.03;5104939;28;20031;-73
2024/02/07 07:46:31;;;;;;;18.95;4.68;;;;;;;3.53;100.00;100515.31;5102099;28;20043;-76
2024/02/07 07:48:56;;;;;;;21.52;5.10;;;;;;;3.45;100.00;100520.28;5103670;28;20031;-77
2024/02/07 07:51:21;;;;;;;21.60;4.95;;;;;;;3.40;100.00;100522.78;5103013;28;20031;-78
2024/02/07 07:53:47;;;;;;;20.52;5.00;;;;;;;3.33;100.00;100519.97;5084568;28;20030;-78
2024/02/07 07:56:13;;;;;;;20.85;4.78;;;;;;;3.36;100.00;100530.50;5104063;28;20470;-72
2024/02/07 07:58:40;;;;;;;22.23;4.90;;;;;;;3.35;100.00;100532.22;5101322;28;20097;-72
2024/02/07 08:01:21;;;;;;;20.13;4.65;;;;;;;3.37;100.00;100529.66;5101688;28;20040;-72
2024/02/07 08:03:46;;;;;;;21.83;4.80;;;;;;;3.33;100.00;100533.91;5102509;28;20028;-72
2024/02/07 08:06:12;;;;;;;21.23;5.18;;;;;;;3.39;100.00;100539.28;5104193;28;20528;-73
2024/02/07 08:08:38;;;;;;;23.45;5.45;;;;;;;3.43;100.00;100528.09;5101096;28;20124;-72
2024/02/07 08:11:04;;;;;;;20.92;5.63;;;;;;;3.31;100.00;100528.63;5104505;28;20039;-72
2024/02/07 08:13:29;;;;;;;21.08;5.80;;;;;;;3.30;100.00;100528.59;5101750;28;20032;-72
2024/02/07 08:15:55;;;;;;;23.33;5.82;;;;;;;3.29;100.00;100535.56;5103367;28;20104;-73
2024/02/07 08:18:20;;;;;;;22.08;5.65;;;;;;;3.28;100.00;100525.94;5102964;28;20055;-72
2024/02/07 08:20:45;;;;;;;24.27;5.80;;;;;;;3.28;100.00;100532.91;5101759;28;20376;-73
2024/02/07 08:23:12;;;;;;;22.75;5.60;;;;;;;3.26;100.00;100530.25;5104486;28;20107;-72
2024/02/07 08:25:37;;;;;;;21.50;5.68;;;;;;;3.30;100.00;100528.59;5099982;28;20024;-72
2024/02/07 08:28:03;;;;;;;22.40;6.03;;;;;;;3.36;100.00;100513.06;5104343;28;20022;-72
2024/02/07 08:30:28;;;;;;;22.85;6.00;;;;;;;3.37;100.00;100512.25;5101812;28;20058;-73
2024/02/07 08:32:55;;;;;;;22.50;5.97;;;;;;;3.35;100.00;100524.41;5102782;28;20032;-77
2024/02/07 08:35:20;;;;;;;21.08;5.72;;;;;;;3.43;100.00;100525.47;5102844;28;20059;-76
2024/02/07 08:37:46;;;;;;;22.70;5.85;;;;;;;3.44;100.00;100529.00;5101843;28;20471;-77
2024/02/07 08:40:11;;;;;;;22.38;5.72;;;;;;;3.38;100.00;100534.94;5103856;28;20031;-74
2024/02/07 08:42:37;;;;;;;21.45;5.25;;;;;;;3.40;100.00;100528.00;5100644;28;20081;-76
2024/02/07 08:45:03;;;;;;;21.75;5.20;;;;;;;3.36;100.00;100520.91;5104250;28;20103;-76
2024/02/07 08:47:29;;;;;;;22.33;5.70;;;;;;;3.44;100.00;100527.25;5083548;28;20554;-78
2024/02/07 08:49:54;;;;;;;20.88;5.20;;;;;;;3.51;100.00;100530.03;5103027;28;20032;-75
2024/02/07 08:52:20;;;;;;;20.20;5.38;;;;;;;3.47;100.00;100523.84;5084822;28;20402;-77
2024/02/07 08:54:45;;;;;;;20.30;5.50;;;;;;;3.45;100.00;100526.44;5101555;28;20467;-76
2024/02/07 08:57:11;;;;;;;22.50;5.75;;;;;;;3.58;100.00;100531.97;5086179;28;20110;-77
2024/02/07 08:59:36;;;;;;;23.10;5.97;;;;;;;3.61;100.00;100545.13;5100666;28;20025;-76
2024/02/07 09:02:02;;;;;;;22.27;5.82;;;;;;;3.62;100.00;100559.97;5103718;28;20529;-77
2024/02/07 09:04:27;;;;;;;23.15;5.80;;;;;;;3.62;100.00;100568.69;5101696;28;20456;-76
2024/02/07 09:06:53;;;;;;;20.67;5.38;;;;;;;3.73;100.00;100573.34;5102398;28;20116;-77
2024/02/07 09:09:18;;;;;;;21.83;5.60;;;;;;;3.78;100.00;100577.00;5102773;28;20059;-78
2024/02/07 09:11:43;;;;;;;21.42;5.22;;;;;;;3.76;100.00;100573.47;5101282;28;20474;-73
2024/02/07 09:14:09;;;;;;;22.20;5.70;;;;;;;3.73;100.00;100558.56;5085999;28;20059;-76
2024/02/07 09:16:34;;;;;;;20.13;5.63;;;;;;;3.75;100.00;100561.22;5100529;28;20025;-74
2024/02/07 09:18:59;;;;;;;23.60;5.90;;;;;;;3.63;100.00;100556.53;5103429;28;20055;-75
2024/02/07 09:21:27;;;;;;;21.23;6.05;;;;;;;3.58;100.00;100560.72;5101874;28;20101;-72
2024/02/07 09:23:52;;;;;;;23.17;5.80;;;;;;;3.51;100.00;100566.63;5102067;28;20036;-72
2024/02/07 09:26:18;;;;;;;22.58;6.05;;;;;;;3.51;100.00;100566.63;5103026;28;20084;-72
2024/02/07 09:28:43;;;;;;;22.75;5.95;;;;;;;3.58;100.00;100573.81;5100794;28;20036;-72
2024/02/07 09:31:09;;;;;;;21.98;6.10;;;;;;;3.55;100.00;100574.59;5103858;28;20035;-72
2024/02/07 09:33:35;;;;;;;23.08;6.05;;;;;;;3.48;100.00;100586.63;5100693;28;20364;-72
2024/02/07 09:36:01;;;;;;;21.45;5.80;;;;;;;3.46;100.00;100592.63;5103127;28;20034;-72
2024/02/07 09:38:26;;;;;;;22.83;6.13;;;;;;;3.49;100.00;100606.69;5105491;28;20034;-70
2024/02/07 09:40:59;;;;;;;22.30;6.40;;;;;;;3.47;100.00;100612.72;5105542;28;20020;-70
2024/02/07 09:43:24;;;;;;;;;;;;;;;3.58;100.00;100621.78;5105709;28;20031;-71
2024/02/07 09:45:59;;;;;;;21.60;6.55;;;;;;;3.68;100.00;100604.59;5105159;28;20355;-71
2024/02/07 09:48:26;;;;;;;23.25;6.50;;;;;;;3.72;100.00;100597.75;5087178;28;20073;-70
2024/02/07 09:50:59;;;;;;;24.65;7.15;;;;;;;3.74;100.00;100594.34;5105529;28;20032;-70
2024/02/07 09:53:26;;;;;;;23.83;7.15;;;;;;;3.76;100.00;100595.25;5105096;28;20036;-70
2024/02/07 09:55:53;;;;;;;22.20;6.55;;;;;;;3.73;100.00;100597.78;5105328;28;20074;-70
2024/02/07 09:58:20;;;;;;;22.83;6.55;;;;;;;3.81;100.00;100590.16;5088068;28;20845;-71
2024/02/07 10:00:46;;;;;;;22.80;6.68;;;;;;;3.98;100.00;100595.84;5104139;28;20036;-71
2024/02/07 10:03:14;;;;;;;22.52;6.05;;;;;;;3.97;100.00;100588.84;5107035;28;20077;-70
2024/02/07 10:05:48;;;;;;;24.23;6.30;;;;;;;4.11;100.00;100579.63;5085274;28;20056;-70
2024/02/07 10:08:14;;;;;;;23.15;5.82;;;;;;;4.16;100.00;100564.03;5103510;28;20028;-71
2024/02/07 10:10:44;;;;;;;23.85;5.75;;;;;;;4.28;100.00;100547.78;5106888;28;20036;-70
2024/02/07 10:13:12;;;;;;;23.50;5.25;;;;;;;4.30;100.00;100546.97;5103554;28;20089;-71
2024/02/07 10:15:38;;;;;;;21.67;5.40;;;;;;;4.43;100.00;100566.50;5103276;28;20383;-74
2024/02/07 10:18:04;;;;;;;22.88;5.15;;;;;;;4.40;100.00;100542.84;5088103;28;20031;-75
2024/02/07 10:20:29;;;;;;;20.52;5.63;;;;;;;4.41;100.00;100548.97;5104321;28;20139;-77
2024/02/07 10:22:54;;;;;;;21.80;5.88;;;;;;;4.54;100.00;100551.94;5104938;28;20043;-75
2024/02/07 10:25:20;;;;;;;20.73;5.97;;;;;;;4.67;100.00;100549.59;5105306;28;20085;-76
2024/02/07 10:27:45;;;;;;;22.77;6.15;;;;;;;4.68;100.00;100548.75;5103901;28;20410;-77
2024/02/07 10:30:12;;;;;;;22.33;6.22;;;;;;;4.74;100.00;100559.38;5106391;28;20114;-78
2024/02/07 10:32:38;;;;;;;22.15;6.05;;;;;;;4.84;100.00;100555.25;5103018;28;20039;-77
2024/02/07 10:35:10;;;;;;;23.35;5.95;;;;;;;4.79;100.00;100542.03;5106586;28;20024;-78
2024/02/07 10:37:42;;;;;;;22.48;6.32;;;;;;;4.99;100.00;100555.56;5103021;28;20023;-78
2024/02/07 10:40:09;;;;;;;22.42;5.80;;;;;;;5.10;100.00;100542.72;5102857;28;20031;-76
2024/02/07 10:42:35;;;;;;;21.63;5.38;;;;;;;5.27;100.00;100553.59;5106368;28;20031;-79
2024/02/07 10:45:05;;;;;;;22.50;6.20;;;;;;;5.47;100.00;100559.22;5085291;28;20032;-78
2024/02/07 10:47:33;;;;;;;21.67;5.70;;;;;;;5.43;100.00;100565.25;5105724;28;20042;-78
2024/02/07 10:49:59;;;;;;;22.55;5.63;;;;;;;5.51;100.00;100555.81;5103218;28;20031;-77
2024/02/07 10:52:25;;;;;;;20.58;5.00;;;;;;;5.53;100.00;100562.00;5104602;28;20028;-73
2024/02/07 10:54:50;;;;;;;23.70;5.15;;;;;;;5.62;100.00;100563.00;5104782;28;20482;-77
2024/02/07 10:57:20;;;;;;;20.38;4.78;;;;;;;5.65;100.00;100561.34;5103364;28;20032;-80
2024/02/07 10:59:47;;;;;;;20.65;4.95;;;;;;;5.63;100.00;100570.03;5105424;28;20501;-79
2024/02/07 11:02:17;;;;;;;19.40;4.80;;;;;;;5.69;100.00;100565.78;5102886;28;20056;-79
2024/02/07 11:04:46;;;;;;;20.13;4.88;;;;;;;5.72;100.00;100570.19;5105693;28;20027;-80
2024/02/07 11:07:14;;;;;;;20.45;4.82;;;;;;;5.76;100.00;100569.41;5094938;28;20051;-79
2024/02/07 11:09:44;;;;;;;19.73;4.75;;;;;;;5.79;100.00;100566.84;5073063;28;20069;-80
2024/02/07 11:12:12;;;;;;;22.27;4.68;;;;;;;5.74;100.00;100558.03;5065389;28;20131;-78
2024/02/07 11:14:42;;;;;;;18.70;4.30;;;;;;;5.56;100.00;100543.69;5062303;28;20025;-80
2024/02/07 11:17:09;;;;;;;20.95;4.40;;;;;;;5.44;100.00;100547.78;5064923;28;20085;-79
2024/02/07 11:19:35;;;;;;;22.52;5.05;;;;;;;5.39;100.00;100542.47;5062447;28;20068;-79
2024/02/07 11:22:02;;;;;;;21.83;4.80;;;;;;;5.49;100.00;100536.56;5063813;28;20511;-80
2024/02/07 11:24:29;;;;;;;21.23;4.80;;;;;;;5.57;100.00;100534.94;5063498;28;20052;-79
2024/02/07 11:26:55;;;;;;;21.90;5.00;;;;;;;5.44;100.00;100538.19;5062993;28;20124;-75
2024/02/07 11:29:21;;;;;;;21.85;4.95;;;;;;;5.57;100.00;100528.84;5064507;28;20096;-72
2024/02/07 11:31:52;;;;;;;22.13;5.00;;;;;;;5.64;100.00;100525.47;5061633;28;20424;-73
2024/02/07 11:34:17;;;;;;;21.95;5.00;;;;;;;5.78;100.00;100537.97;5064579;28;20036;-73
2024/02/07 11:36:52;;;;;;;23.77;5.30;;;;;;;5.94;100.00;100543.53;5061555;28;20376;-73
2024/02/07 11:39:18;;;;;;;22.80;4.82;;;;;;;6.13;100.00;100549.16;5061816;28;20573;-73
2024/02/07 11:41:47;;;;;;;22.10;4.70;;;;;;;6.23;100.00;100542.31;5064723;28;20025;-71
2024/02/07 11:44:15;;;;;;;23.17;5.30;;;;;;;6.57;100.00;100527.13;5061178;28;20028;-70
2024/02/07 11:46:54;;;;;;;22.13;4.80;;;;;;;6.69;100.00;100521.19;5064797;28;20029;-73
2024/02/07 11:49:26;;;;;;;22.55;4.85;;;;;;;6.63;100.00;100520.22;5061788;28;20036;-71
2024/02/07 11:52:02;;;;;;;21.15;4.65;;;;;;;6.68;100.00;100524.66;5063745;28;20032;-71
2024/02/07 11:54:34;;;;;;;20.95;4.75;;;;;;;6.73;100.00;100517.75;5061385;28;20058;-71
2024/02/07 11:56:59;;;;;;;21.88;4.20;;;;;;;6.72;100.00;100518.59;5062409;28;20028;-71
2024/02/07 11:59:24;;;;;;;23.30;4.25;;;;;;;6.98;100.00;100524.22;5062269;28;20044;-71
2024/02/07 12:01:50;;;;;;;23.10;4.40;;;;;;;7.24;100.00;100527.19;5063821;28;20024;-71
2024/02/07 12:04:19;;;;;;;20.98;4.05;;;;;;;7.37;100.00;100515.09;5060869;28;20037;-72
2024/02/07 12:06:45;;;;;;;23.23;4.63;;;;;;;7.45;100.00;100516.06;5060898;28;20025;-72
2024/02/07 12:09:11;;;;;;;19.48;4.10;;;;;;;7.43;100.00;100519.56;5070243;28;20063;-72
2024/02/07 12:11:37;;;;;;;24.08;4.55;;;;;;;7.24;100.00;100516.69;5101948;28;20036;-71
2024/02/07 12:14:02;;;;;;;21.52;4.10;;;;;;;7.24;100.00;100506.16;5103646;28;20515;-71
2024/02/07 12:16:28;;;;;;;21.48;4.00;;;;;;;7.29;100.00;100514.97;5102948;28;20126;-71